Time,TemperatureF,DewpointF,PressureIn,WindDirection,WindDirectionDegrees,WindSpeedMPH,WindSpeedGustMPH,Humidity,HourlyPrecipIn,Conditions,Clouds,dailyrainin,SoftwareType,DateUTC
2013-01-18 00:01:00,20.1,-3.1,30.21,SW,219,0.0,0.0,35,0.00,,---,0.00,VWS V14.01,2013-01-18 06:01:00,
2013-01-18 00:06:00,20.1,-3.1,30.21,SW,219,0.0,0.0,35,0.00,,---,0.00,VWS V14.01,2013-01-18 06:06:00,
2013-01-18 00:11:00,20.1,-3.1,30.24,SW,219,0.0,0.0,35,0.00,,---,0.00,VWS V14.01,2013-01-18 06:11:00,
2013-01-18 00:16:00,20.1,-3.1,30.24,SW,219,0.0,0.0,35,0.00,,---,0.00,VWS V14.01,2013-01-18 06:16:00,
2013-01-18 00:21:00,20.1,-3.1,30.24,SW,219,0.0,0.0,35,0.00,,---,0.00,VWS V14.01,2013-01-18 06:21:00,
2013-01-18 00:26:00,20.1,-3.1,30.24,SW,219,0.0,0.0,35,0.00,,---,0.00,VWS V14.01,2013-01-18 06:26:00,
2013-01-18 00:31:00,20.1,-3.1,30.24,SW,219,0.0,0.0,35,0.00,,---,0.00,VWS V14.01,2013-01-18 06:31:00,
2013-01-18 00:36:00,20.1,-3.1,30.24,SW,219,0.0,0.0,35,0.00,,---,0.00,VWS V14.01,2013-01-18 06:36:00,
2013-01-18 00:41:00,20.1,-3.1,30.24,SW,219,0.0,0.0,35,0.00,,---,0.00,VWS V14.01,2013-01-18 06:41:00,
2013-01-18 00:46:00,20.1,-3.1,30.24,SW,219,0.0,0.0,35,0.00,,---,0.00,VWS V14.01,2013-01-18 06:46:00,
2013-01-18 00:51:00,20.1,-3.1,30.24,SW,219,0.0,0.0,35,0.00,,---,0.00,VWS V14.01,2013-01-18 06:51:00,
2013-01-18 00:56:00,20.1,-3.1,30.24,SW,219,0.0,0.0,35,0.00,,---,0.00,VWS V14.01,2013-01-18 06:56:00,
2013-01-18 01:01:00,20.1,-3.1,30.24,SW,219,0.0,0.0,35,0.00,,---,0.00,VWS V14.01,2013-01-18 07:01:00,
2013-01-18 01:06:00,20.1,-3.1,30.24,SSW,196,0.0,0.0,35,0.00,,---,0.00,VWS V14.01,2013-01-18 07:06:00,
2013-01-18 01:11:00,20.1,-3.1,30.24,SE,142,0.0,0.0,35,0.00,,---,0.00,VWS V14.01,2013-01-18 07:11:00,
2013-01-18 01:16:00,20.1,-3.1,30.24,SSE,147,6.3,7.2,35,0.00,,---,0.00,VWS V14.01,2013-01-18 07:16:00,
2013-01-18 01:21:00,20.1,-3.1,30.24,SSE,158,6.3,6.3,35,0.00,,---,0.00,VWS V14.01,2013-01-18 07:21:00,
2013-01-18 01:26:00,20.1,-3.1,30.24,SSE,158,4.5,4.5,35,0.00,,---,0.00,VWS V14.01,2013-01-18 07:26:00,
2013-01-18 01:31:00,20.1,-3.1,30.24,SSE,158,0.0,0.0,35,0.00,,---,0.00,VWS V14.01,2013-01-18 07:31:00,
2013-01-18 01:36:00,20.1,-3.1,30.24,SSE,158,0.0,0.0,35,0.00,,---,0.00,VWS V14.01,2013-01-18 07:36:00,
2013-01-18 01:41:00,20.1,-3.1,30.24,SSE,158,0.0,0.0,35,0.00,,---,0.00,VWS V14.01,2013-01-18 07:41:00,
2013-01-18 01:46:00,20.1,-3.1,30.24,SSE,158,0.0,0.0,35,0.00,,---,0.00,VWS V14.01,2013-01-18 07:46:00,
2013-01-18 01:51:00,20.1,-3.1,30.24,SSE,158,0.0,0.0,35,0.00,,---,0.00,VWS V14.01,2013-01-18 07:51:00,
2013-01-18 01:56:00,20.1,-3.1,30.24,SE,142,0.0,0.0,35,0.00,,---,0.00,VWS V14.01,2013-01-18 07:56:00,
2013-01-18 02:01:00,20.1,-3.1,30.24,SE,142,0.0,0.0,35,0.00,,---,0.00,VWS V14.01,2013-01-18 08:01:00,
2013-01-18 02:06:00,20.1,-3.1,30.24,SE,142,0.0,0.0,35,0.00,,---,0.00,VWS V14.01,2013-01-18 08:06:00,
2013-01-18 02:11:00,20.1,-3.1,30.24,SE,142,0.0,0.0,35,0.00,,---,0.00,VWS V14.01,2013-01-18 08:11:00,
2013-01-18 02:16:00,20.1,-3.1,30.24,SE,142,0.0,0.0,35,0.00,,---,0.00,VWS V14.01,2013-01-18 08:16:00,
2013-01-18 02:21:00,20.1,-3.1,30.24,SE,142,0.0,0.0,35,0.00,,---,0.00,VWS V14.01,2013-01-18 08:21:00,
2013-01-18 02:26:00,20.1,-3.1,30.24,SE,142,0.0,0.0,35,0.00,,---,0.00,VWS V14.01,2013-01-18 08:26:00,
2013-01-18 02:31:00,20.1,-3.1,30.24,SE,142,0.0,0.0,35,0.00,,---,0.00,VWS V14.01,2013-01-18 08:31:00,
2013-01-18 02:36:00,20.1,-3.1,30.24,SE,142,0.0,0.0,35,0.00,,---,0.00,VWS V14.01,2013-01-18 08:36:00,
2013-01-18 02:41:00,20.1,-3.1,30.27,SE,142,0.0,0.0,35,0.00,,---,0.00,VWS V14.01,2013-01-18 08:41:00,
2013-01-18 02:46:00,20.1,-3.1,30.27,SE,142,0.0,0.0,35,0.00,,---,0.00,VWS V14.01,2013-01-18 08:46:00,
2013-01-18 02:51:00,20.1,-3.1,30.27,SE,142,0.0,0.0,35,0.00,,---,0.00,VWS V14.01,2013-01-18 08:51:00,
2013-01-18 02:56:00,20.1,-3.1,30.24,SE,142,0.0,0.0,35,0.00,,---,0.00,VWS V14.01,2013-01-18 08:56:00,
2013-01-18 03:01:00,20.1,-3.1,30.24,SE,142,0.0,0.0,35,0.00,,---,0.00,VWS V14.01,2013-01-18 09:01:00,
2013-01-18 03:06:00,20.1,-3.1,30.24,SE,142,0.0,0.0,35,0.00,,---,0.00,VWS V14.01,2013-01-18 09:06:00,
2013-01-18 03:11:00,20.1,-3.1,30.24,SE,142,0.0,0.0,35,0.00,,---,0.00,VWS V14.01,2013-01-18 09:11:00,
2013-01-18 03:16:00,20.1,-3.1,30.24,SE,142,0.0,0.0,35,0.00,,---,0.00,VWS V14.01,2013-01-18 09:16:00,
2013-01-18 03:21:00,20.1,-3.1,30.24,SE,142,0.0,0.0,35,0.00,,---,0.00,VWS V14.01,2013-01-18 09:21:00,
2013-01-18 03:26:00,20.1,-3.1,30.24,SE,142,0.0,0.0,35,0.00,,---,0.00,VWS V14.01,2013-01-18 09:26:00,
2013-01-18 03:31:00,20.1,-3.1,30.24,SE,142,0.0,0.0,35,0.00,,---,0.00,VWS V14.01,2013-01-18 09:31:00,
2013-01-18 03:36:00,20.1,-3.1,30.24,SE,142,0.0,0.0,35,0.00,,---,0.00,VWS V14.01,2013-01-18 09:36:00,
2013-01-18 03:41:00,20.1,-3.1,30.24,SE,142,0.0,0.0,35,0.00,,---,0.00,VWS V14.01,2013-01-18 09:41:00,
2013-01-18 03:46:00,20.1,-3.1,30.24,SE,142,0.0,0.0,35,0.00,,---,0.00,VWS V14.01,2013-01-18 09:46:00,
2013-01-18 03:51:00,20.1,-3.1,30.24,SE,142,0.0,0.0,35,0.00,,---,0.00,VWS V14.01,2013-01-18 09:51:00,
2013-01-18 03:56:00,20.1,-3.1,30.24,SE,142,0.0,0.0,35,0.00,,---,0.00,VWS V14.01,2013-01-18 09:56:00,
2013-01-18 04:01:00,20.1,-3.1,30.24,SE,142,0.0,0.0,35,0.00,,---,0.00,VWS V14.01,2013-01-18 10:01:00,
2013-01-18 04:06:00,20.1,-3.1,30.24,SE,142,0.0,0.0,35,0.00,,---,0.00,VWS V14.01,2013-01-18 10:06:00,
2013-01-18 04:11:00,20.1,-3.1,30.24,SE,142,0.0,0.0,35,0.00,,---,0.00,VWS V14.01,2013-01-18 10:11:00,
2013-01-18 04:16:00,20.1,-3.1,30.21,SE,142,0.0,0.0,35,0.00,,---,0.00,VWS V14.01,2013-01-18 10:16:00,
2013-01-18 04:21:00,20.1,-3.1,30.21,SE,142,0.0,0.0,35,0.00,,---,0.00,VWS V14.01,2013-01-18 10:21:00,
2013-01-18 04:26:00,20.1,-3.1,30.21,SE,142,0.0,0.0,35,0.00,,---,0.00,VWS V14.01,2013-01-18 10:26:00,
2013-01-18 04:31:00,20.1,-3.1,30.24,SE,142,0.0,0.0,35,0.00,,---,0.00,VWS V14.01,2013-01-18 10:31:00,
2013-01-18 04:36:00,20.1,-3.1,30.24,SE,142,0.0,0.0,35,0.00,,---,0.00,VWS V14.01,2013-01-18 10:36:00,
2013-01-18 04:41:00,20.1,-3.1,30.21,SSE,153,0.0,0.0,35,0.00,,---,0.00,VWS V14.01,2013-01-18 10:41:00,
2013-01-18 04:46:00,20.1,-3.1,30.21,SSE,152,0.0,0.0,35,0.00,,---,0.00,VWS V14.01,2013-01-18 10:46:00,
2013-01-18 04:51:00,20.1,-3.1,30.21,SSE,152,0.0,0.0,35,0.00,,---,0.00,VWS V14.01,2013-01-18 10:51:00,
2013-01-18 04:56:00,20.1,-3.1,30.21,SE,146,0.0,0.0,35,0.00,,---,0.00,VWS V14.01,2013-01-18 10:56:00,
2013-01-18 05:01:00,20.1,-3.1,30.24,SE,138,7.2,8.1,35,0.00,,---,0.00,VWS V14.01,2013-01-18 11:01:00,
2013-01-18 05:06:00,20.1,-3.1,30.24,SE,144,8.1,8.9,35,0.00,,---,0.00,VWS V14.01,2013-01-18 11:06:00,
2013-01-18 05:11:00,20.1,-3.1,30.24,SE,139,8.1,8.1,35,0.00,,---,0.00,VWS V14.01,2013-01-18 11:11:00,
2013-01-18 05:16:00,20.1,-3.1,30.24,SSE,148,8.1,8.1,35,0.00,,---,0.00,VWS V14.01,2013-01-18 11:16:00,
2013-01-18 05:21:00,20.1,-3.1,30.24,SSE,152,8.1,8.1,35,0.00,,---,0.00,VWS V14.01,2013-01-18 11:21:00,
2013-01-18 05:26:00,20.1,-3.1,30.24,SSE,149,6.3,6.3,35,0.00,,---,0.00,VWS V14.01,2013-01-18 11:26:00,
2013-01-18 05:31:00,20.1,-3.1,30.24,SE,145,5.4,7.2,35,0.00,,---,0.00,VWS V14.01,2013-01-18 11:31:00,
2013-01-18 05:36:00,20.1,-3.1,30.24,SE,146,7.2,7.2,35,0.00,,---,0.00,VWS V14.01,2013-01-18 11:36:00,
2013-01-18 05:41:00,20.1,-3.1,30.24,SSE,155,5.4,7.2,35,0.00,,---,0.00,VWS V14.01,2013-01-18 11:41:00,
2013-01-18 05:46:00,20.1,-3.1,30.24,SSE,149,0.0,0.0,35,0.00,,---,0.00,VWS V14.01,2013-01-18 11:46:00,
2013-01-18 05:51:00,20.1,-3.1,30.24,SSE,147,8.1,8.1,35,0.00,,---,0.00,VWS V14.01,2013-01-18 11:51:00,
2013-01-18 05:56:00,20.1,-3.1,30.24,SSE,147,8.1,8.1,35,0.00,,---,0.00,VWS V14.01,2013-01-18 11:56:00,
2013-01-18 06:01:00,20.1,-3.1,30.24,SE,143,7.2,7.2,35,0.00,,---,0.00,VWS V14.01,2013-01-18 12:01:00,
2013-01-18 06:06:00,20.1,-3.1,30.24,SE,138,8.1,8.1,35,0.00,,---,0.00,VWS V14.01,2013-01-18 12:06:00,
2013-01-18 06:11:00,20.1,-3.1,30.24,SE,146,9.8,10.7,35,0.00,,---,0.00,VWS V14.01,2013-01-18 12:11:00,
2013-01-18 06:16:00,20.1,-3.1,30.24,SSE,155,10.7,10.7,35,0.00,,---,0.00,VWS V14.01,2013-01-18 12:16:00,
2013-01-18 06:21:00,20.1,-3.1,30.24,SSE,155,10.7,10.7,35,0.00,,---,0.00,VWS V14.01,2013-01-18 12:21:00,
2013-01-18 06:26:00,20.1,-3.1,30.24,SSE,152,11.6,11.6,35,0.00,,---,0.00,VWS V14.01,2013-01-18 12:26:00,
2013-01-18 06:31:00,20.1,-3.1,30.24,SE,146,10.7,10.7,35,0.00,,---,0.00,VWS V14.01,2013-01-18 12:31:00,
2013-01-18 06:36:00,20.1,-3.1,30.24,SE,138,11.6,11.6,35,0.00,,---,0.00,VWS V14.01,2013-01-18 12:36:00,
2013-01-18 06:41:00,20.1,-3.1,30.24,SE,141,11.6,11.6,35,0.00,,---,0.00,VWS V14.01,2013-01-18 12:41:00,
2013-01-18 06:46:00,20.1,-3.1,30.21,SSE,152,9.8,9.8,35,0.00,,---,0.00,VWS V14.01,2013-01-18 12:46:00,
2013-01-18 06:51:00,20.1,-3.1,30.21,SSE,147,9.8,9.8,35,0.00,,---,0.00,VWS V14.01,2013-01-18 12:51:00,
2013-01-18 06:56:00,20.1,-3.1,30.21,SSE,155,10.7,10.7,35,0.00,,---,0.00,VWS V14.01,2013-01-18 12:56:00,
2013-01-18 07:01:00,20.1,-3.1,30.21,SSE,147,10.7,10.7,35,0.00,,---,0.00,VWS V14.01,2013-01-18 13:01:00,
2013-01-18 07:06:00,20.1,-3.1,30.21,SSE,156,11.6,12.5,35,0.00,,---,0.00,VWS V14.01,2013-01-18 13:06:00,
2013-01-18 07:11:00,20.1,-3.1,30.21,SSE,152,8.1,8.1,35,0.00,,---,0.00,VWS V14.01,2013-01-18 13:11:00,
2013-01-18 07:16:00,20.1,-3.1,30.21,SSE,152,9.8,12.5,35,0.00,,---,0.00,VWS V14.01,2013-01-18 13:16:00,
2013-01-18 07:21:00,20.1,-3.1,30.21,SSE,153,11.6,12.5,35,0.00,,---,0.00,VWS V14.01,2013-01-18 13:21:00,
2013-01-18 07:26:00,20.1,-3.1,30.21,SSE,163,13.4,13.4,35,0.00,,---,0.00,VWS V14.01,2013-01-18 13:26:00,
2013-01-18 07:31:00,20.1,0.0,30.21,SSE,152,12.5,12.5,0,0.00,,---,0.00,VWS V14.01,2013-01-18 13:31:00,
2013-01-18 07:36:00,20.1,0.0,30.21,SSE,153,12.5,12.5,0,0.00,,---,0.00,VWS V14.01,2013-01-18 13:36:00,
2013-01-18 07:41:00,20.1,0.0,30.21,SSE,147,12.5,12.5,0,0.00,,---,0.00,VWS V14.01,2013-01-18 13:41:00,
2013-01-18 07:46:00,20.1,0.0,30.21,SSE,162,6.3,11.6,0,0.00,,---,0.00,VWS V14.01,2013-01-18 13:46:00,
2013-01-18 07:51:00,20.1,0.0,30.21,South,170,11.6,11.6,0,0.00,,---,0.00,VWS V14.01,2013-01-18 13:51:00,
2013-01-18 07:56:00,20.1,0.0,30.21,SSE,159,9.8,9.8,0,0.00,,---,0.00,VWS V14.01,2013-01-18 13:56:00,
2013-01-18 08:01:00,20.1,0.0,30.21,SSE,157,10.7,10.7,0,0.00,,---,0.00,VWS V14.01,2013-01-18 14:01:00,
2013-01-18 08:06:00,20.1,0.0,30.21,SSE,159,11.6,12.5,0,0.00,,---,0.00,VWS V14.01,2013-01-18 14:06:00,
2013-01-18 08:11:00,20.1,0.0,30.21,SSE,160,10.7,11.6,0,0.00,,---,0.00,VWS V14.01,2013-01-18 14:11:00,
2013-01-18 08:16:00,20.1,0.0,30.21,SSE,167,14.3,14.3,0,0.00,,---,0.00,VWS V14.01,2013-01-18 14:16:00,
2013-01-18 08:21:00,20.1,0.0,30.21,SSE,161,12.5,12.5,0,0.00,,---,0.00,VWS V14.01,2013-01-18 14:21:00,
2013-01-18 08:26:00,20.1,0.0,30.21,SSE,165,11.6,16.1,0,0.00,,---,0.00,VWS V14.01,2013-01-18 14:26:00,
2013-01-18 08:31:00,20.1,0.0,30.18,South,173,16.1,16.1,0,0.00,,---,0.00,VWS V14.01,2013-01-18 14:31:00,
2013-01-18 08:36:00,20.1,0.0,30.18,SSE,160,15.2,15.2,0,0.00,,---,0.00,VWS V14.01,2013-01-18 14:36:00,
2013-01-18 08:41:00,20.1,0.0,30.18,SSE,155,15.2,16.1,0,0.00,,---,0.00,VWS V14.01,2013-01-18 14:41:00,
2013-01-18 08:46:00,20.1,0.0,30.18,SSE,168,16.1,16.1,0,0.00,,---,0.00,VWS V14.01,2013-01-18 14:46:00,
2013-01-18 08:51:00,20.1,0.0,30.18,SSE,164,10.7,15.2,0,0.00,,---,0.00,VWS V14.01,2013-01-18 14:51:00,
2013-01-18 08:56:00,20.1,0.0,30.18,SSE,156,16.1,16.1,0,0.00,,---,0.00,VWS V14.01,2013-01-18 14:56:00,
2013-01-18 09:01:00,20.1,0.0,30.21,SSE,167,16.1,16.1,0,0.00,,---,0.00,VWS V14.01,2013-01-18 15:01:00,
2013-01-18 09:06:00,20.1,0.0,30.21,SSE,164,12.5,16.6,0,0.00,,---,0.00,VWS V14.01,2013-01-18 15:06:00,
2013-01-18 09:11:00,20.1,0.0,30.21,SSE,147,13.4,16.6,0,0.00,,---,0.00,VWS V14.01,2013-01-18 15:11:00,
2013-01-18 09:16:00,20.1,0.0,30.18,SE,144,17.4,20.1,0,0.00,,---,0.00,VWS V14.01,2013-01-18 15:16:00,
2013-01-18 09:21:00,20.1,0.0,30.18,SE,124,16.6,20.1,0,0.00,,---,0.00,VWS V14.01,2013-01-18 15:21:00,
2013-01-18 09:26:00,20.1,0.0,30.18,SSE,162,16.6,16.6,0,0.00,,---,0.00,VWS V14.01,2013-01-18 15:26:00,
2013-01-18 09:31:00,20.1,0.0,30.18,South,169,14.3,14.3,0,0.00,,---,0.00,VWS V14.01,2013-01-18 15:31:00,
2013-01-18 09:36:00,20.1,0.0,30.18,South,174,16.1,16.1,0,0.00,,---,0.00,VWS V14.01,2013-01-18 15:36:00,
2013-01-18 09:41:00,20.1,0.0,30.18,South,190,12.5,16.6,0,0.00,,---,0.00,VWS V14.01,2013-01-18 15:41:00,
2013-01-18 09:46:00,20.1,0.0,30.18,SSE,155,12.5,20.1,0,0.00,,---,0.00,VWS V14.01,2013-01-18 15:46:00,
2013-01-18 09:51:00,20.1,0.0,30.18,SE,146,16.6,21.9,0,0.00,,---,0.00,VWS V14.01,2013-01-18 15:51:00,
2013-01-18 09:56:00,20.1,0.0,30.18,SSE,153,16.1,16.6,0,0.00,,---,0.00,VWS V14.01,2013-01-18 15:56:00,
2013-01-18 10:01:00,20.1,0.0,30.18,SSE,162,16.6,21.9,0,0.00,,---,0.00,VWS V14.01,2013-01-18 16:01:00,
2013-01-18 10:06:00,20.1,0.0,30.18,SSE,157,17.4,17.4,0,0.00,,---,0.00,VWS V14.01,2013-01-18 16:06:00,
2013-01-18 10:11:00,20.1,0.0,30.15,SSE,149,16.6,16.6,0,0.00,,---,0.00,VWS V14.01,2013-01-18 16:11:00,
2013-01-18 10:16:00,20.1,0.0,30.15,South,173,16.1,19.2,0,0.00,,---,0.00,VWS V14.01,2013-01-18 16:16:00,
2013-01-18 10:21:00,20.1,0.0,30.15,SSE,150,16.1,16.1,0,0.00,,---,0.00,VWS V14.01,2013-01-18 16:21:00,
2013-01-18 10:26:00,20.1,0.0,30.15,SE,131,20.1,20.1,0,0.00,,---,0.00,VWS V14.01,2013-01-18 16:26:00,
2013-01-18 10:31:00,20.1,0.0,30.15,SSE,167,19.2,19.2,0,0.00,,---,0.00,VWS V14.01,2013-01-18 16:31:00,
2013-01-18 10:36:00,20.1,0.0,30.15,SSE,160,15.2,21.9,0,0.00,,---,0.00,VWS V14.01,2013-01-18 16:36:00,
2013-01-18 10:41:00,20.1,0.0,30.15,SE,141,15.2,15.2,0,0.00,,---,0.00,VWS V14.01,2013-01-18 16:41:00,
2013-01-18 10:46:00,20.1,0.0,30.12,SE,144,12.5,12.5,0,0.00,,---,0.00,VWS V14.01,2013-01-18 16:46:00,
2013-01-18 10:51:00,20.1,0.0,30.12,SSE,156,16.1,17.4,0,0.00,,---,0.00,VWS V14.01,2013-01-18 16:51:00,
2013-01-18 10:56:00,20.1,0.0,30.12,SE,146,11.6,21.0,0,0.00,,---,0.00,VWS V14.01,2013-01-18 16:56:00,
2013-01-18 11:01:00,20.1,0.0,30.15,SSE,155,20.1,20.1,0,0.00,,---,0.00,VWS V14.01,2013-01-18 17:01:00,
2013-01-18 11:06:00,20.1,0.0,30.15,SSE,167,15.2,16.6,0,0.00,,---,0.00,VWS V14.01,2013-01-18 17:06:00,
2013-01-18 11:11:00,20.1,0.0,30.15,SSE,159,14.3,16.1,0,0.00,,---,0.00,VWS V14.01,2013-01-18 17:11:00,
2013-01-18 11:16:00,20.1,0.0,30.12,South,176,12.5,20.1,0,0.00,,---,0.00,VWS V14.01,2013-01-18 17:16:00,
2013-01-18 11:21:00,20.1,0.0,30.12,South,176,16.6,16.6,0,0.00,,---,0.00,VWS V14.01,2013-01-18 17:21:00,
2013-01-18 11:26:00,20.1,0.0,30.12,South,179,16.1,16.1,0,0.00,,---,0.00,VWS V14.01,2013-01-18 17:26:00,
2013-01-18 11:31:00,20.1,0.0,30.09,SSE,152,15.2,21.0,0,0.00,,---,0.00,VWS V14.01,2013-01-18 17:31:00,
2013-01-18 11:36:00,20.1,0.0,30.09,SSE,152,17.4,17.4,0,0.00,,---,0.00,VWS V14.01,2013-01-18 17:36:00,
2013-01-18 11:41:00,20.1,0.0,30.09,SSE,150,16.1,16.1,0,0.00,,---,0.00,VWS V14.01,2013-01-18 17:41:00,
2013-01-18 11:46:00,20.1,0.0,30.09,SSE,151,16.6,16.6,0,0.00,,---,0.00,VWS V14.01,2013-01-18 17:46:00,
2013-01-18 11:51:00,20.1,0.0,30.09,SSE,153,16.1,16.1,0,0.00,,---,0.00,VWS V14.01,2013-01-18 17:51:00,
2013-01-18 11:56:00,20.1,0.0,30.09,SSE,160,13.4,13.4,0,0.00,,---,0.00,VWS V14.01,2013-01-18 17:56:00,
2013-01-18 12:01:00,20.1,0.0,30.06,SSE,147,17.4,17.4,0,0.00,,---,0.00,VWS V14.01,2013-01-18 18:01:00,
2013-01-18 12:06:00,20.1,0.0,30.06,SSE,163,15.2,21.9,0,0.00,,---,0.00,VWS V14.01,2013-01-18 18:06:00,
2013-01-18 12:11:00,20.1,0.0,30.06,SE,141,20.1,20.1,0,0.00,,---,0.00,VWS V14.01,2013-01-18 18:11:00,
2013-01-18 12:16:00,20.1,0.0,30.06,SSE,154,20.1,21.0,0,0.00,,---,0.00,VWS V14.01,2013-01-18 18:16:00,
2013-01-18 12:21:00,20.1,0.0,30.06,SSE,154,16.1,16.1,0,0.00,,---,0.00,VWS V14.01,2013-01-18 18:21:00,
2013-01-18 12:26:00,20.1,0.0,30.03,South,185,15.2,16.6,0,0.00,,---,0.00,VWS V14.01,2013-01-18 18:26:00,
2013-01-18 12:31:00,20.1,0.0,30.03,SSE,156,21.0,21.0,0,0.00,,---,0.00,VWS V14.01,2013-01-18 18:31:00,
2013-01-18 12:36:00,20.1,0.0,30.03,SSE,151,16.1,20.1,0,0.00,,---,0.00,VWS V14.01,2013-01-18 18:36:00,
2013-01-18 12:41:00,20.1,0.0,30.03,SSE,158,25.5,25.5,0,0.00,,---,0.00,VWS V14.01,2013-01-18 18:41:00,
2013-01-18 12:46:00,20.1,0.0,30.03,SSE,161,17.4,17.4,0,0.00,,---,0.00,VWS V14.01,2013-01-18 18:46:00,
2013-01-18 12:51:00,20.1,0.0,30.03,SE,142,19.2,19.2,0,0.00,,---,0.00,VWS V14.01,2013-01-18 18:51:00,
2013-01-18 12:56:00,20.1,0.0,30.03,South,184,20.1,21.9,0,0.00,,---,0.00,VWS V14.01,2013-01-18 18:56:00,
2013-01-18 13:01:00,20.1,0.0,30.00,SSE,164,17.4,25.5,0,0.00,,---,0.00,VWS V14.01,2013-01-18 19:01:00,
2013-01-18 13:06:00,20.1,0.0,30.00,SSE,161,21.0,26.4,0,0.00,,---,0.00,VWS V14.01,2013-01-18 19:06:00,
2013-01-18 13:11:00,20.1,0.0,30.00,SSE,154,21.0,24.6,0,0.00,,---,0.00,VWS V14.01,2013-01-18 19:11:00,
2013-01-18 13:16:00,20.1,0.0,30.00,SSE,150,21.9,21.9,0,0.00,,---,0.00,VWS V14.01,2013-01-18 19:16:00,
2013-01-18 13:21:00,20.1,0.0,30.00,SSE,152,10.7,21.0,0,0.00,,---,0.00,VWS V14.01,2013-01-18 19:21:00,
2013-01-18 13:26:00,20.1,0.0,30.00,SSE,167,24.6,24.6,0,0.00,,---,0.00,VWS V14.01,2013-01-18 19:26:00,
2013-01-18 13:31:00,20.1,0.0,30.00,SSE,156,25.5,26.4,0,0.00,,---,0.00,VWS V14.01,2013-01-18 19:31:00,
2013-01-18 13:36:00,20.1,0.0,30.00,SE,136,17.4,17.4,0,0.00,,---,0.00,VWS V14.01,2013-01-18 19:36:00,
2013-01-18 13:41:00,20.1,0.0,30.00,SSE,162,16.1,16.1,0,0.00,,---,0.00,VWS V14.01,2013-01-18 19:41:00,
2013-01-18 13:46:00,20.1,0.0,29.97,SSE,153,21.0,21.0,0,0.00,,---,0.00,VWS V14.01,2013-01-18 19:46:00,
2013-01-18 13:51:00,20.1,0.0,29.97,SSE,161,20.1,20.1,0,0.00,,---,0.00,VWS V14.01,2013-01-18 19:51:00,
2013-01-18 13:56:00,20.1,0.0,29.97,SE,131,20.1,20.1,0,0.00,,---,0.00,VWS V14.01,2013-01-18 19:56:00,
2013-01-18 14:01:00,20.1,0.0,29.97,SSE,150,19.2,20.1,0,0.00,,---,0.00,VWS V14.01,2013-01-18 20:01:00,
2013-01-18 14:06:00,20.1,0.0,29.97,SSE,168,16.6,16.6,0,0.00,,---,0.00,VWS V14.01,2013-01-18 20:06:00,
2013-01-18 14:11:00,20.1,0.0,29.97,SE,144,19.2,21.9,0,0.00,,---,0.00,VWS V14.01,2013-01-18 20:11:00,
2013-01-18 14:16:00,20.1,0.0,29.97,SSE,162,20.1,24.6,0,0.00,,---,0.00,VWS V14.01,2013-01-18 20:16:00,
2013-01-18 14:21:00,20.1,0.0,29.97,SSE,155,16.1,16.1,0,0.00,,---,0.00,VWS V14.01,2013-01-18 20:21:00,
2013-01-18 14:26:00,20.1,0.0,29.97,SSE,157,16.6,16.6,0,0.00,,---,0.00,VWS V14.01,2013-01-18 20:26:00,
2013-01-18 14:31:00,20.1,0.0,29.94,SE,138,16.1,26.4,0,0.00,,---,0.00,VWS V14.01,2013-01-18 20:31:00,
2013-01-18 14:36:00,20.1,0.0,29.94,SSE,151,20.1,20.1,0,0.00,,---,0.00,VWS V14.01,2013-01-18 20:36:00,
2013-01-18 14:41:00,20.1,0.0,29.94,SSE,153,16.1,16.1,0,0.00,,---,0.00,VWS V14.01,2013-01-18 20:41:00,
2013-01-18 14:46:00,20.1,0.0,29.94,SSE,147,16.1,17.4,0,0.00,,---,0.00,VWS V14.01,2013-01-18 20:46:00,
2013-01-18 14:51:00,20.1,0.0,29.94,SSE,158,21.0,21.0,0,0.00,,---,0.00,VWS V14.01,2013-01-18 20:51:00,
2013-01-18 14:56:00,20.1,0.0,29.94,SSE,161,15.2,25.5,0,0.00,,---,0.00,VWS V14.01,2013-01-18 20:56:00,
2013-01-18 15:01:00,20.1,0.0,29.91,South,169,17.4,20.1,0,0.00,,---,0.00,VWS V14.01,2013-01-18 21:01:00,
2013-01-18 15:06:00,20.1,0.0,29.91,SE,140,16.1,20.1,0,0.00,,---,0.00,VWS V14.01,2013-01-18 21:06:00,
2013-01-18 15:11:00,20.1,0.0,29.91,SSE,163,17.4,17.4,0,0.00,,---,0.00,VWS V14.01,2013-01-18 21:11:00,
2013-01-18 15:16:00,20.1,0.0,29.91,South,172,20.1,21.9,0,0.00,,---,0.00,VWS V14.01,2013-01-18 21:16:00,
2013-01-18 15:21:00,20.1,0.0,29.91,SSE,155,17.4,17.4,0,0.00,,---,0.00,VWS V14.01,2013-01-18 21:21:00,
2013-01-18 15:26:00,20.1,0.0,29.91,SE,142,20.1,21.9,0,0.00,,---,0.00,VWS V14.01,2013-01-18 21:26:00,
2013-01-18 15:31:00,20.1,0.0,29.91,SSE,160,20.1,20.1,0,0.00,,---,0.00,VWS V14.01,2013-01-18 21:31:00,
2013-01-18 15:36:00,20.1,0.0,29.91,SE,133,16.6,21.9,0,0.00,,---,0.00,VWS V14.01,2013-01-18 21:36:00,
2013-01-18 15:41:00,20.1,0.0,29.91,South,170,16.1,21.0,0,0.00,,---,0.00,VWS V14.01,2013-01-18 21:41:00,
2013-01-18 15:46:00,20.1,0.0,29.88,SSE,157,16.6,24.6,0,0.00,,---,0.00,VWS V14.01,2013-01-18 21:46:00,
2013-01-18 15:51:00,20.1,0.0,29.88,SE,134,15.2,15.2,0,0.00,,---,0.00,VWS V14.01,2013-01-18 21:51:00,
2013-01-18 15:56:00,20.1,0.0,29.88,SSE,163,11.6,11.6,0,0.00,,---,0.00,VWS V14.01,2013-01-18 21:56:00,
2013-01-18 16:01:00,20.1,0.0,29.88,SSE,155,16.1,21.0,0,0.00,,---,0.00,VWS V14.01,2013-01-18 22:01:00,
2013-01-18 16:06:00,20.1,0.0,29.88,SE,145,16.6,23.7,0,0.00,,---,0.00,VWS V14.01,2013-01-18 22:06:00,
2013-01-18 16:11:00,40.6,3.8,29.88,SE,141,16.1,16.1,21,0.00,,---,0.00,VWS V14.01,2013-01-18 22:11:00,
2013-01-18 16:16:00,40.6,3.8,29.88,SE,144,21.0,21.0,21,0.00,,---,0.00,VWS V14.01,2013-01-18 22:16:00,
2013-01-18 16:21:00,40.5,3.6,29.88,SSE,168,24.6,24.6,21,0.00,,---,0.00,VWS V14.01,2013-01-18 22:21:00,
2013-01-18 16:26:00,40.3,3.5,29.88,SSE,162,16.6,20.1,21,0.00,,---,0.00,VWS V14.01,2013-01-18 22:26:00,
2013-01-18 16:31:00,40.3,3.5,29.88,SSE,153,17.4,17.4,21,0.00,,---,0.00,VWS V14.01,2013-01-18 22:31:00,
2013-01-18 16:36:00,39.6,2.9,29.88,SSE,155,23.7,23.7,21,0.00,,---,0.00,VWS V14.01,2013-01-18 22:36:00,
2013-01-18 16:41:00,39.4,2.7,29.88,SE,141,16.6,16.6,21,0.00,,---,0.00,VWS V14.01,2013-01-18 22:41:00,
2013-01-18 16:46:00,39.6,2.9,29.85,SE,141,17.4,26.4,21,0.00,,---,0.00,VWS V14.01,2013-01-18 22:46:00,
2013-01-18 16:51:00,39.4,4.7,29.85,SSE,158,15.2,20.1,23,0.00,,---,0.00,VWS V14.01,2013-01-18 22:51:00,
2013-01-18 16:56:00,38.8,5.2,29.85,SSE,149,20.1,20.1,24,0.00,,---,0.00,VWS V14.01,2013-01-18 22:56:00,
2013-01-18 17:01:00,38.7,5.0,29.85,SE,144,20.1,20.1,24,0.00,,---,0.00,VWS V14.01,2013-01-18 23:01:00,
2013-01-18 17:06:00,38.5,4.8,29.85,SSE,147,20.1,20.1,24,0.00,,---,0.00,VWS V14.01,2013-01-18 23:06:00,
2013-01-18 17:10:00,38.1,4.5,29.85,SSE,161,17.4,17.4,24,0.00,,---,0.00,VWS V14.01,2013-01-18 23:10:00,
2013-01-18 17:15:00,37.9,4.4,29.85,SSE,150,12.5,16.6,24,0.00,,---,0.00,VWS V14.01,2013-01-18 23:15:00,
2013-01-18 17:20:00,37.9,4.4,29.85,SSE,165,16.6,17.4,24,0.00,,---,0.00,VWS V14.01,2013-01-18 23:20:00,
2013-01-18 17:25:00,37.9,4.4,29.85,South,179,16.1,16.1,24,0.00,,---,0.00,VWS V14.01,2013-01-18 23:25:00,
2013-01-18 17:30:00,37.9,4.4,29.88,SSE,160,16.1,16.6,24,0.00,,---,0.00,VWS V14.01,2013-01-18 23:30:00,
2013-01-18 17:35:00,37.6,4.1,29.88,SSE,152,17.4,17.4,24,0.00,,---,0.00,VWS V14.01,2013-01-18 23:35:00,
2013-01-18 17:40:00,37.2,6.3,29.88,SSE,166,16.1,16.1,27,0.00,,---,0.00,VWS V14.01,2013-01-18 23:40:00,
2013-01-18 17:45:00,37.0,6.2,29.88,SE,143,10.7,11.6,27,0.00,,---,0.00,VWS V14.01,2013-01-18 23:45:00,
2013-01-18 17:50:00,37.2,6.3,29.88,SSE,150,12.5,12.5,27,0.00,,---,0.00,VWS V14.01,2013-01-18 23:50:00,
2013-01-18 17:55:00,37.0,6.2,29.88,SSE,156,11.6,16.1,27,0.00,,---,0.00,VWS V14.01,2013-01-18 23:55:00,
2013-01-18 18:00:00,37.0,6.2,29.88,SSE,153,8.1,12.5,27,0.00,,---,0.00,VWS V14.01,2013-01-19 00:00:00,
2013-01-18 18:05:00,36.9,6.0,29.88,SSE,156,16.1,16.1,27,0.00,,---,0.00,VWS V14.01,2013-01-19 00:05:00,
2013-01-18 18:10:00,37.0,6.2,29.88,SSE,151,12.5,12.5,27,0.00,,---,0.00,VWS V14.01,2013-01-19 00:10:00,
2013-01-18 18:15:00,37.0,6.2,29.88,SSE,159,10.7,11.6,27,0.00,,---,0.00,VWS V14.01,2013-01-19 00:15:00,
2013-01-18 18:20:00,37.0,6.2,29.88,SSE,150,9.8,9.8,27,0.00,,---,0.00,VWS V14.01,2013-01-19 00:20:00,
2013-01-18 18:25:00,37.0,6.2,29.88,SSE,158,11.6,11.6,27,0.00,,---,0.00,VWS V14.01,2013-01-19 00:25:00,
2013-01-18 18:30:00,37.0,6.2,29.88,SSE,164,10.7,12.5,27,0.00,,---,0.00,VWS V14.01,2013-01-19 00:30:00,
2013-01-18 18:35:00,37.0,6.2,29.88,SSE,158,12.5,12.5,27,0.00,,---,0.00,VWS V14.01,2013-01-19 00:35:00,
2013-01-18 18:40:00,37.0,6.2,29.88,South,175,11.6,11.6,27,0.00,,---,0.00,VWS V14.01,2013-01-19 00:40:00,
2013-01-18 18:45:00,37.0,6.2,29.88,SSE,160,12.5,15.2,27,0.00,,---,0.00,VWS V14.01,2013-01-19 00:45:00,
2013-01-18 18:50:00,37.0,6.2,29.88,South,172,16.1,16.1,27,0.00,,---,0.00,VWS V14.01,2013-01-19 00:50:00,
2013-01-18 18:55:00,37.0,6.2,29.88,South,170,7.2,11.6,27,0.00,,---,0.00,VWS V14.01,2013-01-19 00:55:00,
2013-01-18 19:00:00,37.0,6.2,29.88,SSE,168,21.0,21.0,27,0.00,,---,0.00,VWS V14.01,2013-01-19 01:00:00,
2013-01-18 19:05:00,37.0,6.2,29.88,SSE,155,15.2,16.1,27,0.00,,---,0.00,VWS V14.01,2013-01-19 01:05:00,
2013-01-18 19:10:00,37.0,6.2,29.88,SSE,156,10.7,11.6,27,0.00,,---,0.00,VWS V14.01,2013-01-19 01:10:00,
2013-01-18 19:15:00,37.0,6.2,29.85,SSE,154,7.2,10.7,27,0.00,,---,0.00,VWS V14.01,2013-01-19 01:15:00,
2013-01-18 19:20:00,37.0,6.2,29.85,South,172,12.5,12.5,27,0.00,,---,0.00,VWS V14.01,2013-01-19 01:20:00,
2013-01-18 19:25:00,37.0,6.2,29.85,SSE,152,17.4,17.4,27,0.00,,---,0.00,VWS V14.01,2013-01-19 01:25:00,
2013-01-18 19:30:00,37.0,6.2,29.85,SSW,196,9.8,11.6,27,0.00,,---,0.00,VWS V14.01,2013-01-19 01:30:00,
2013-01-18 19:35:00,37.0,6.2,29.85,South,173,12.5,15.2,27,0.00,,---,0.00,VWS V14.01,2013-01-19 01:35:00,
2013-01-18 19:40:00,37.0,6.2,29.85,South,177,11.6,11.6,27,0.00,,---,0.00,VWS V14.01,2013-01-19 01:40:00,
2013-01-18 19:45:00,37.0,6.2,29.85,SSE,168,8.1,9.8,27,0.00,,---,0.00,VWS V14.01,2013-01-19 01:45:00,
2013-01-18 19:50:00,37.0,6.2,29.85,SSE,156,6.3,8.9,27,0.00,,---,0.00,VWS V14.01,2013-01-19 01:50:00,
2013-01-18 19:55:00,37.0,6.2,29.85,SSE,163,13.4,13.4,27,0.00,,---,0.00,VWS V14.01,2013-01-19 01:55:00,
2013-01-18 20:00:00,37.0,6.2,29.85,SSE,148,6.3,10.7,27,0.00,,---,0.00,VWS V14.01,2013-01-19 02:00:00,
2013-01-18 20:05:00,37.0,6.2,29.85,South,177,10.7,15.2,27,0.00,,---,0.00,VWS V14.01,2013-01-19 02:05:00,
2013-01-18 20:10:00,37.0,6.2,29.85,SE,141,10.7,15.2,27,0.00,,---,0.00,VWS V14.01,2013-01-19 02:10:00,
2013-01-18 20:15:00,37.0,6.2,29.85,SSE,151,10.7,12.5,27,0.00,,---,0.00,VWS V14.01,2013-01-19 02:15:00,
2013-01-18 20:20:00,37.0,6.2,29.85,South,170,8.1,9.8,27,0.00,,---,0.00,VWS V14.01,2013-01-19 02:20:00,
2013-01-18 20:25:00,37.0,6.2,29.85,South,176,8.1,10.7,27,0.00,,---,0.00,VWS V14.01,2013-01-19 02:25:00,
2013-01-18 20:30:00,37.0,6.2,29.85,SSE,150,16.6,16.6,27,0.00,,---,0.00,VWS V14.01,2013-01-19 02:30:00,
2013-01-18 20:35:00,37.0,6.2,29.85,South,182,6.3,12.5,27,0.00,,---,0.00,VWS V14.01,2013-01-19 02:35:00,
2013-01-18 20:40:00,37.0,6.2,29.85,South,170,16.1,16.1,27,0.00,,---,0.00,VWS V14.01,2013-01-19 02:40:00,
2013-01-18 20:45:00,37.0,6.2,29.85,SSE,166,6.3,15.2,27,0.00,,---,0.00,VWS V14.01,2013-01-19 02:45:00,
2013-01-18 20:50:00,37.0,6.2,29.85,SSE,157,15.2,16.6,27,0.00,,---,0.00,VWS V14.01,2013-01-19 02:50:00,
2013-01-18 20:55:00,37.0,6.2,29.85,South,187,6.3,11.6,27,0.00,,---,0.00,VWS V14.01,2013-01-19 02:55:00,
2013-01-18 21:00:00,37.0,6.2,29.85,SSE,164,7.2,15.2,27,0.00,,---,0.00,VWS V14.01,2013-01-19 03:00:00,
2013-01-18 21:05:00,37.0,6.2,29.85,South,179,9.8,16.1,27,0.00,,---,0.00,VWS V14.01,2013-01-19 03:05:00,
2013-01-18 21:10:00,37.0,6.2,29.85,South,190,7.2,12.5,27,0.00,,---,0.00,VWS V14.01,2013-01-19 03:10:00,
2013-01-18 21:15:00,37.0,6.2,29.85,South,182,7.2,7.2,27,0.00,,---,0.00,VWS V14.01,2013-01-19 03:15:00,
2013-01-18 21:20:00,37.0,6.2,29.85,SSE,166,8.1,9.8,27,0.00,,---,0.00,VWS V14.01,2013-01-19 03:20:00,
2013-01-18 21:25:00,37.0,6.2,29.85,SSE,160,11.6,11.6,27,0.00,,---,0.00,VWS V14.01,2013-01-19 03:25:00,
2013-01-18 21:30:00,37.0,6.2,29.85,South,179,8.1,15.2,27,0.00,,---,0.00,VWS V14.01,2013-01-19 03:30:00,
2013-01-18 21:35:00,37.0,6.2,29.85,South,189,7.2,10.7,27,0.00,,---,0.00,VWS V14.01,2013-01-19 03:35:00,
2013-01-18 21:40:00,37.0,6.2,29.85,SSE,168,8.1,9.8,27,0.00,,---,0.00,VWS V14.01,2013-01-19 03:40:00,
2013-01-18 21:45:00,37.0,6.2,29.83,SSE,166,8.1,9.8,27,0.00,,---,0.00,VWS V14.01,2013-01-19 03:45:00,
2013-01-18 21:50:00,37.0,6.2,29.83,South,177,9.8,11.6,27,0.00,,---,0.00,VWS V14.01,2013-01-19 03:50:00,
2013-01-18 21:55:00,37.0,6.2,29.83,South,172,6.3,7.2,27,0.00,,---,0.00,VWS V14.01,2013-01-19 03:55:00,
2013-01-18 22:00:00,37.0,6.2,29.83,South,180,7.2,7.2,27,0.00,,---,0.00,VWS V14.01,2013-01-19 04:00:00,
2013-01-18 22:05:00,37.0,6.2,29.83,SSE,163,15.2,15.2,27,0.00,,---,0.00,VWS V14.01,2013-01-19 04:05:00,
2013-01-18 22:10:00,37.0,6.2,29.83,South,177,8.1,11.6,27,0.00,,---,0.00,VWS V14.01,2013-01-19 04:10:00,
2013-01-18 22:15:00,37.0,6.2,29.83,South,189,12.5,12.5,27,0.00,,---,0.00,VWS V14.01,2013-01-19 04:15:00,
2013-01-18 22:20:00,37.0,6.2,29.83,SSE,165,8.1,10.7,27,0.00,,---,0.00,VWS V14.01,2013-01-19 04:20:00,
2013-01-18 22:25:00,37.0,6.2,29.83,SSE,165,8.1,16.1,27,0.00,,---,0.00,VWS V14.01,2013-01-19 04:25:00,
2013-01-18 22:30:00,37.0,6.2,29.83,South,177,10.7,11.6,27,0.00,,---,0.00,VWS V14.01,2013-01-19 04:30:00,
2013-01-18 22:35:00,37.0,6.2,29.83,South,174,11.6,11.6,27,0.00,,---,0.00,VWS V14.01,2013-01-19 04:35:00,
2013-01-18 22:40:00,37.0,6.2,29.83,South,171,12.5,12.5,27,0.00,,---,0.00,VWS V14.01,2013-01-19 04:40:00,
2013-01-18 22:45:00,37.0,6.2,29.83,South,178,7.2,12.5,27,0.00,,---,0.00,VWS V14.01,2013-01-19 04:45:00,
2013-01-18 22:50:00,37.0,6.2,29.83,South,177,6.3,12.5,27,0.00,,---,0.00,VWS V14.01,2013-01-19 04:50:00,
2013-01-18 22:55:00,37.0,6.2,29.83,South,181,9.8,9.8,27,0.00,,---,0.00,VWS V14.01,2013-01-19 04:55:00,
2013-01-18 23:00:00,37.0,6.2,29.83,South,185,11.6,11.6,27,0.00,,---,0.00,VWS V14.01,2013-01-19 05:00:00,
2013-01-18 23:01:00,37.0,6.2,29.83,SSE,154,10.7,11.6,27,0.00,,---,0.00,VWS V14.01,2013-01-19 05:01:00,
2013-01-18 23:02:00,37.0,6.2,29.83,South,173,9.8,12.5,27,0.00,,---,0.00,VWS V14.01,2013-01-19 05:02:00,
2013-01-18 23:07:00,37.0,6.2,29.83,SSE,162,10.7,13.4,27,0.00,,---,0.00,VWS V14.01,2013-01-19 05:07:00,
2013-01-18 23:12:00,37.0,6.2,29.83,SSE,163,11.6,12.5,27,0.00,,---,0.00,VWS V14.01,2013-01-19 05:12:00,
2013-01-18 23:17:00,37.0,6.2,29.83,South,180,10.7,11.6,27,0.00,,---,0.00,VWS V14.01,2013-01-19 05:17:00,
2013-01-18 23:22:00,37.0,6.2,29.83,South,178,9.8,15.2,27,0.00,,---,0.00,VWS V14.01,2013-01-19 05:22:00,
2013-01-18 23:27:00,37.0,6.2,29.83,South,176,8.1,12.5,27,0.00,,---,0.00,VWS V14.01,2013-01-19 05:27:00,
2013-01-18 23:32:00,37.0,6.2,29.83,South,174,11.6,11.6,27,0.00,,---,0.00,VWS V14.01,2013-01-19 05:32:00,
2013-01-18 23:37:00,37.0,6.2,29.83,South,182,6.3,10.7,27,0.00,,---,0.00,VWS V14.01,2013-01-19 05:37:00,
2013-01-18 23:42:00,37.0,6.2,29.80,SSE,158,8.9,11.6,27,0.00,,---,0.00,VWS V14.01,2013-01-19 05:42:00,
2013-01-18 23:47:00,37.0,6.2,29.80,South,186,7.2,17.4,27,0.00,,---,0.00,VWS V14.01,2013-01-19 05:47:00,
2013-01-18 23:52:00,37.0,6.2,29.80,SSW,193,15.2,15.2,27,0.00,,---,0.00,VWS V14.01,2013-01-19 05:52:00,
2013-01-18 23:57:00,37.0,6.2,29.80,SSE,168,11.6,15.2,27,0.00,,---,0.00,VWS V14.01,2013-01-19 05:57:00,